Time;durP1;ratioP1;P1;durP2;ratioP2;P2;SDS_P1;SDS_P2;PMS_P1;PMS_P2;Temp;Humidity;BMP_temperature;BMP_pressure;BME280_temperature;BME280_humidity;BME280_pressure;Samples;Min_cycle;Max_cycle;Signal;HPM_P1;HPM_P2
2022/09/30 00:04:54;;;;;;;15.23;9.75;;;;;;;8.27;100.00;99504.38;20821393;28;20091;-69
2022/09/30 00:14:56;;;;;;;17.20;10.50;;;;;;;8.26;100.00;99511.34;20819542;28;20073;-68
2022/09/30 00:24:57;;;;;;;16.33;9.95;;;;;;;8.26;100.00;99508.75;20820053;28;20093;-69
2022/09/30 00:34:58;;;;;;;16.65;11.15;;;;;;;8.17;100.00;99514.13;20819445;28;20068;-69
2022/09/30 00:45:00;;;;;;;15.90;9.88;;;;;;;8.05;100.00;99514.38;20818423;28;20068;-69
2022/09/30 00:55:01;;;;;;;18.50;10.50;;;;;;;8.00;100.00;99516.22;20816714;28;20076;-69
2022/09/30 01:05:02;;;;;;;15.52;9.02;;;;;;;8.02;100.00;99524.88;20816813;28;20048;-69
2022/09/30 01:15:04;;;;;;;16.88;9.48;;;;;;;8.03;100.00;99530.06;20815715;28;20052;-68
2022/09/30 01:25:05;;;;;;;15.02;9.75;;;;;;;7.91;100.00;99525.94;20814935;28;20101;-69
2022/09/30 01:35:06;;;;;;;16.98;9.18;;;;;;;7.94;100.00;99536.28;20813109;28;20083;-69
2022/09/30 01:45:08;;;;;;;12.13;8.18;;;;;;;7.91;100.00;99540.72;20814532;28;20057;-69
2022/09/30 01:55:09;;;;;;;13.85;8.13;;;;;;;7.92;100.00;99556.34;20811171;28;20080;-69
2022/09/30 02:05:10;;;;;;;13.65;7.65;;;;;;;7.93;100.00;99560.66;20809587;28;20513;-69
2022/09/30 02:15:12;;;;;;;12.13;6.88;;;;;;;8.01;100.00;99583.13;20810762;28;20395;-69
2022/09/30 02:25:14;;;;;;;11.95;7.75;;;;;;;8.02;100.00;99596.13;20809893;28;20080;-69
2022/09/30 02:35:15;;;;;;;16.48;10.00;;;;;;;8.08;100.00;99582.97;20809863;28;20076;-69
2022/09/30 02:45:16;;;;;;;13.10;8.15;;;;;;;7.96;100.00;99589.28;20808582;28;20092;-69
2022/09/30 02:55:18;;;;;;;11.82;7.38;;;;;;;7.92;100.00;99594.56;20807792;28;20049;-69
2022/09/30 03:05:19;;;;;;;11.68;6.65;;;;;;;7.77;100.00;99598.31;20808111;28;20417;-69
2022/09/30 03:15:20;;;;;;;11.20;7.78;;;;;;;7.78;100.00;99591.34;20807764;28;20148;-70
2022/09/30 03:25:22;;;;;;;13.75;8.20;;;;;;;7.55;100.00;99589.97;20806008;28;20049;-69
2022/09/30 03:35:23;;;;;;;14.13;7.72;;;;;;;7.50;100.00;99597.00;20807224;28;20084;-69
2022/09/30 03:45:24;;;;;;;10.20;6.25;;;;;;;7.43;100.00;99617.09;20807628;28;20645;-69
2022/09/30 03:55:26;;;;;;;11.25;6.68;;;;;;;7.44;100.00;99624.00;20814014;28;20446;-70
2022/09/30 04:05:27;;;;;;;11.80;6.53;;;;;;;7.53;100.00;99627.38;20820423;28;20107;-69
2022/09/30 04:15:28;;;;;;;10.98;6.82;;;;;;;7.53;100.00;99636.03;20815699;28;20156;-68
2022/09/30 04:25:31;;;;;;;11.93;5.78;;;;;;;7.49;100.00;99641.31;20817588;28;20061;-69
2022/09/30 04:35:32;;;;;;;10.55;5.57;;;;;;;7.34;100.00;99658.91;20817719;28;20508;-69
2022/09/30 04:45:33;;;;;;;25.42;15.70;;;;;;;7.37;100.00;99658.84;20818485;28;20497;-70
2022/09/30 04:55:35;;;;;;;23.67;15.23;;;;;;;7.38;100.00;99670.13;20816303;28;20072;-69
2022/09/30 05:05:36;;;;;;;12.45;8.63;;;;;;;7.40;100.00;99674.44;20814821;28;20077;-69
2022/09/30 05:15:37;;;;;;;11.57;7.32;;;;;;;7.36;100.00;99683.16;20814905;28;20136;-69
2022/09/30 05:25:38;;;;;;;10.85;6.63;;;;;;;7.16;100.00;99691.25;20813536;28;20140;-68
2022/09/30 05:35:40;;;;;;;15.95;8.38;;;;;;;6.99;100.00;99706.22;20813537;28;20490;-68
2022/09/30 05:45:41;;;;;;;12.02;7.20;;;;;;;6.94;100.00;99716.66;20812668;28;20081;-69
2022/09/30 05:55:43;;;;;;;10.05;6.40;;;;;;;7.08;100.00;99745.16;20811662;28;20065;-69
2022/09/30 06:05:44;;;;;;;10.25;6.10;;;;;;;7.24;100.00;99758.00;20810849;28;20053;-69
2022/09/30 06:15:46;;;;;;;8.50;5.63;;;;;;;7.22;100.00;99771.00;20809494;28;20100;-68
2022/09/30 06:25:47;;;;;;;15.60;9.55;;;;;;;7.37;100.00;99785.59;20808687;28;20103;-70
2022/09/30 06:35:49;;;;;;;10.80;6.85;;;;;;;7.57;100.00;99796.63;20809286;28;20095;-70
2022/09/30 06:45:50;;;;;;;13.88;7.97;;;;;;;7.82;100.00;99802.38;20806392;28;20088;-68
2022/09/30 06:55:52;;;;;;;14.00;7.47;;;;;;;7.94;100.00;99802.16;20806857;28;20049;-69
2022/09/30 07:05:56;;;;;;;12.85;7.40;;;;;;;8.10;100.00;99810.66;20806377;28;20096;-69
2022/09/30 07:15:57;;;;;;;16.98;9.35;;;;;;;8.41;100.00;99818.00;20805820;28;20076;-69
2022/09/30 07:25:59;;;;;;;16.33;11.32;;;;;;;8.70;100.00;99820.13;20806390;28;20133;-69
2022/09/30 07:36:06;;;;;;;17.92;10.73;;;;;;;9.10;100.00;99820.28;20817870;28;20472;-69
2022/09/30 07:46:08;;;;;;;17.65;10.23;;;;;;;9.08;100.00;99848.16;20790552;28;20053;-69
2022/09/30 07:56:09;;;;;;;17.88;10.93;;;;;;;9.19;100.00;99855.78;20816405;28;20049;-70
2022/09/30 08:06:10;;;;;;;17.08;10.90;;;;;;;9.36;100.00;99864.19;20813784;28;20046;-70
2022/09/30 08:16:12;;;;;;;18.27;10.48;;;;;;;9.58;100.00;99874.19;20817304;28;20061;-70
2022/09/30 08:26:14;;;;;;;20.67;11.85;;;;;;;9.65;100.00;99896.72;20817565;28;20148;-71
2022/09/30 08:36:15;;;;;;;17.75;10.52;;;;;;;9.96;100.00;99895.19;20817013;28;20501;-70
2022/09/30 08:46:17;;;;;;;23.13;12.07;;;;;;;10.14;100.00;99920.09;20813931;28;20111;-71
2022/09/30 08:56:18;;;;;;;23.50;13.95;;;;;;;10.24;100.00;99929.47;20815262;28;20137;-71
2022/09/30 09:06:19;;;;;;;24.05;14.95;;;;;;;10.43;100.00;99935.16;20814629;28;20144;-71
2022/09/30 09:16:21;;;;;;;23.38;15.25;;;;;;;10.47;100.00;99930.72;20809520;28;20398;-71
2022/09/30 09:26:23;;;;;;;23.73;14.45;;;;;;;11.07;100.00;99929.28;20812545;28;20092;-71
2022/09/30 09:36:24;;;;;;;21.58;14.35;;;;;;;11.25;100.00;99926.19;20813943;28;20093;-71
2022/09/30 09:46:25;;;;;;;17.55;12.85;;;;;;;12.02;100.00;99935.47;20801147;28;20081;-71
2022/09/30 09:56:27;;;;;;;21.45;13.38;;;;;;;12.07;100.00;99929.22;20810091;28;20069;-71
2022/09/30 10:06:32;;;;;;;19.35;13.57;;;;;;;11.85;100.00;99933.34;20809643;28;20060;-72
2022/09/30 10:16:37;;;;;;;23.73;14.93;;;;;;;12.05;100.00;99930.16;20809005;28;20128;-72
2022/09/30 10:26:38;;;;;;;19.13;14.33;;;;;;;11.74;100.00;99935.38;20808336;28;20092;-72
2022/09/30 10:36:42;;;;;;;19.15;13.80;;;;;;;12.02;100.00;99925.84;20806621;28;20132;-72
2022/09/30 10:46:43;;;;;;;20.73;15.18;;;;;;;12.17;100.00;99936.78;20808698;28;20164;-72
2022/09/30 10:56:45;;;;;;;23.40;15.48;;;;;;;12.20;100.00;99926.19;20807219;28;20176;-73
2022/09/30 11:06:46;;;;;;;20.95;14.68;;;;;;;12.78;100.00;99927.00;20806060;28;20076;-73
2022/09/30 11:16:47;;;;;;;21.65;13.70;;;;;;;12.93;100.00;99921.25;20806550;28;20081;-73
2022/09/30 11:26:49;;;;;;;16.52;10.85;;;;;;;13.16;100.00;99917.00;20806006;28;20053;-73
2022/09/30 11:36:50;;;;;;;13.80;9.32;;;;;;;13.21;100.00;99912.44;20801636;28;20107;-73
2022/09/30 11:46:51;;;;;;;15.63;9.15;;;;;;;13.22;100.00;99906.31;20804193;28;20502;-77
2022/09/30 11:56:53;;;;;;;13.50;9.30;;;;;;;13.57;100.00;99905.09;20803094;28;20080;-71
2022/09/30 12:06:54;;;;;;;10.10;7.40;;;;;;;13.72;100.00;99895.78;20803435;28;20088;-71
2022/09/30 12:16:56;;;;;;;10.98;6.60;;;;;;;13.88;100.00;99907.44;20811511;28;20053;-70
2022/09/30 12:26:57;;;;;;;7.72;4.70;;;;;;;14.15;100.00;99904.69;20817817;28;20053;-71
2022/09/30 12:36:59;;;;;;;11.98;4.18;;;;;;;14.39;99.19;99903.75;20817641;28;20137;-71
2022/09/30 12:47:00;;;;;;;6.53;3.30;;;;;;;14.40;98.63;99910.72;20815962;28;20103;-71
2022/09/30 12:57:02;;;;;;;8.90;3.65;;;;;;;14.16;96.64;99904.63;20814853;28;20053;-71
2022/09/30 13:07:04;;;;;;;10.35;4.32;;;;;;;14.81;99.50;99905.63;20814234;28;20049;-71
2022/09/30 13:17:05;;;;;;;7.72;3.70;;;;;;;14.87;94.41;99908.00;20814451;28;20079;-71
2022/09/30 13:27:06;;;;;;;6.80;3.65;;;;;;;15.02;95.51;99914.41;20813840;28;20049;-71
2022/09/30 13:37:08;;;;;;;6.60;3.20;;;;;;;15.10;97.51;99918.44;20811859;28;20260;-71
2022/09/30 13:47:09;;;;;;;7.53;2.50;;;;;;;15.21;93.38;99909.22;20811981;28;20461;-71
2022/09/30 13:57:10;;;;;;;8.80;3.05;;;;;;;15.05;91.52;99909.88;20810693;28;20053;-71
2022/09/30 14:07:13;;;;;;;6.45;2.80;;;;;;;15.50;92.27;99913.22;20809650;28;20085;-71
2022/09/30 14:17:14;;;;;;;5.32;2.80;;;;;;;15.07;90.96;99912.44;20809466;28;20053;-71
2022/09/30 14:27:15;;;;;;;6.03;2.38;;;;;;;15.00;93.37;99906.56;20809173;28;20135;-71
2022/09/30 14:37:17;;;;;;;7.35;2.92;;;;;;;15.01;90.70;99899.50;20806574;28;20736;-71
2022/09/30 14:47:21;;;;;;;8.75;3.22;;;;;;;15.33;93.09;99890.22;20801791;28;20136;-71
2022/09/30 14:57:23;;;;;;;5.17;2.30;;;;;;;15.20;95.52;99912.78;20806191;28;20092;-71
2022/09/30 15:07:24;;;;;;;5.90;2.40;;;;;;;15.13;98.16;99907.75;20805534;28;20149;-72
2022/09/30 15:17:28;;;;;;;5.25;2.60;;;;;;;14.84;100.00;99913.38;20805684;28;20080;-73
2022/09/30 15:27:30;;;;;;;4.33;2.13;;;;;;;14.81;99.19;99900.34;20806280;28;20153;-73
2022/09/30 15:37:32;;;;;;;5.75;2.53;;;;;;;14.72;100.00;99906.00;20805170;28;20064;-73
2022/09/30 15:47:34;;;;;;;8.38;3.00;;;;;;;14.60;100.00;99892.38;20807871;28;20046;-71
2022/09/30 15:57:36;;;;;;;7.72;2.85;;;;;;;14.42;100.00;99898.38;20820546;28;20084;-71
2022/09/30 16:07:37;;;;;;;4.90;2.60;;;;;;;14.28;100.00;99900.69;20814452;28;20053;-71
2022/09/30 16:17:39;;;;;;;7.43;2.53;;;;;;;13.98;100.00;99898.28;20814499;28;20140;-71
2022/09/30 16:27:40;;;;;;;6.20;2.92;;;;;;;13.89;100.00;99897.75;20816169;28;20425;-71
2022/09/30 16:37:43;;;;;;;9.40;3.28;;;;;;;13.56;100.00;99885.81;20814473;28;20441;-71
2022/09/30 16:47:44;;;;;;;7.32;2.95;;;;;;;13.04;100.00;99898.13;20814403;28;20073;-71
2022/09/30 16:57:46;;;;;;;8.30;3.13;;;;;;;12.61;100.00;99918.84;20812646;28;20089;-72
2022/09/30 17:07:47;;;;;;;9.63;4.70;;;;;;;12.27;100.00;99922.50;20812116;28;20057;-72
2022/09/30 17:17:51;;;;;;;12.55;4.72;;;;;;;11.96;100.00;99931.25;20811275;28;20453;-72
2022/09/30 17:27:53;;;;;;;9.15;4.97;;;;;;;11.71;100.00;99941.56;20812309;28;20053;-72
2022/09/30 17:37:55;;;;;;;8.15;3.78;;;;;;;11.63;100.00;99955.78;20809641;28;20046;-71
2022/09/30 17:47:56;;;;;;;6.28;3.65;;;;;;;11.25;100.00;99962.88;20809134;28;20056;-71
2022/09/30 17:57:57;;;;;;;7.03;4.00;;;;;;;10.98;100.00;99967.06;20807960;28;20133;-71
2022/09/30 18:07:59;;;;;;;15.55;7.35;;;;;;;10.89;100.00;99976.00;20806792;28;21447;-71
2022/09/30 18:18:00;;;;;;;16.50;9.93;;;;;;;10.84;100.00;99993.59;20806351;28;20148;-71
2022/09/30 18:28:01;;;;;;;12.77;5.30;;;;;;;10.70;100.00;100014.00;20807494;28;20077;-72
2022/09/30 18:38:04;;;;;;;7.50;4.93;;;;;;;10.51;100.00;100024.00;20805805;28;20053;-71
2022/09/30 18:48:06;;;;;;;13.27;5.75;;;;;;;10.32;100.00;100015.69;20805405;28;20060;-72
2022/09/30 18:58:07;;;;;;;10.75;6.95;;;;;;;10.22;100.00;100019.34;20805414;28;20481;-71
2022/09/30 19:08:09;;;;;;;10.63;7.38;;;;;;;10.07;100.00;99998.75;20804076;28;20045;-71
2022/09/30 19:18:10;;;;;;;13.55;8.80;;;;;;;9.86;100.00;99995.63;20804483;28;20057;-71
2022/09/30 19:28:13;;;;;;;12.60;8.25;;;;;;;9.71;100.00;99996.78;20819082;28;20049;-72
2022/09/30 19:38:14;;;;;;;13.23;8.65;;;;;;;9.64;100.00;100004.78;20819735;28;20069;-72
2022/09/30 19:48:19;;;;;;;19.98;10.98;;;;;;;9.52;100.00;99993.63;20819797;28;20049;-71
2022/09/30 19:58:20;;;;;;;18.52;10.20;;;;;;;9.39;100.00;100012.16;20819225;28;20076;-72
2022/09/30 20:08:21;;;;;;;16.65;11.52;;;;;;;9.29;100.00;100011.47;20817952;28;20386;-71
2022/09/30 20:18:23;;;;;;;14.88;10.35;;;;;;;9.32;100.00;100021.03;20817436;28;20089;-73
2022/09/30 20:28:24;;;;;;;14.23;9.75;;;;;;;9.23;100.00;100040.31;20817766;28;20049;-71
2022/09/30 20:38:26;;;;;;;14.38;8.77;;;;;;;9.10;100.00;100046.59;20815248;28;20485;-72
2022/09/30 20:48:27;;;;;;;12.82;8.60;;;;;;;9.07;100.00;100046.69;20815400;28;20087;-73
2022/09/30 20:58:33;;;;;;;15.13;9.57;;;;;;;8.92;100.00;100056.47;20813331;28;20049;-72
2022/09/30 21:08:37;;;;;;;19.13;8.95;;;;;;;8.93;100.00;100079.06;20813654;28;20045;-72
2022/09/30 21:18:39;;;;;;;14.52;8.85;;;;;;;8.74;100.00;100072.38;20813187;28;20069;-72
2022/09/30 21:28:41;;;;;;;13.93;9.43;;;;;;;8.71;100.00;100080.22;20812571;28;20081;-71
2022/09/30 21:38:48;;;;;;;17.30;9.75;;;;;;;8.58;100.00;100063.03;20810460;28;20041;-72
2022/09/30 21:48:52;;;;;;;18.30;12.32;;;;;;;8.57;100.00;100061.28;20811372;28;20536;-71
2022/09/30 21:58:54;;;;;;;20.52;13.07;;;;;;;8.67;100.00;100052.44;20809887;28;20081;-72
2022/09/30 22:08:55;;;;;;;23.02;12.52;;;;;;;8.76;100.00;100028.81;20810846;28;20073;-72
2022/09/30 22:18:58;;;;;;;18.77;11.30;;;;;;;8.79;100.00;100044.47;20810788;28;20081;-72
2022/09/30 22:29:00;;;;;;;20.13;11.93;;;;;;;8.81;100.00;100037.47;20803168;28;20053;-72
2022/09/30 22:39:01;;;;;;;19.98;12.30;;;;;;;8.72;100.00;100048.06;20809190;28;20077;-73
2022/09/30 22:49:02;;;;;;;23.13;13.80;;;;;;;8.63;100.00;100040.34;20809464;28;20506;-72
2022/09/30 22:59:05;;;;;;;20.88;13.32;;;;;;;8.65;100.00;100054.22;20807309;28;20057;-72
2022/09/30 23:09:06;;;;;;;18.08;11.05;;;;;;;8.62;100.00;100051.66;20806862;28;20084;-73
2022/09/30 23:19:07;;;;;;;19.52;12.82;;;;;;;8.59;100.00;100046.50;20805889;28;20148;-73
2022/09/30 23:29:09;;;;;;;23.02;13.40;;;;;;;8.66;100.00;100037.69;20807196;28;20073;-73
2022/09/30 23:39:11;;;;;;;19.52;12.05;;;;;;;8.75;100.00;100037.56;20805979;28;20405;-73
2022/09/30 23:49:12;;;;;;;19.95;12.77;;;;;;;8.77;100.00;100041.03;20806530;28;20050;-72
2022/09/30 23:59:14;;;;;;;20.73;12.77;;;;;;;8.65;100.00;100033.34;20804669;28;20057;-73
